NCAR-RAP Real-Time Weather Data

Output produced by METARs form (26 May 2022  08:49 UTC)
found at http://weather.rap.ucar.edu/surface/
 
KORF 260751Z 04010KT 3SM BR OVC006 16/16 A3022 RMK AO2 SLP231 T01610156
KORF 260651Z 04007KT 3SM BR OVC005 16/16 A3022 RMK AO2 SLP231 T01560156
KORF 260647Z 04007KT 2 1/2SM BR OVC005 16/16 A3021 RMK AO2
KORF 260551Z 05008KT 9SM OVC007 16/15 A3023 RMK AO2 SLP235 60003 T01560150 10156 20144 58012
KORF 260451Z 05010KT 10SM OVC008 16/15 A3025 RMK AO2 RAE25 SLP243 P0000 T01560150 401610144
KORF 260351Z 05009KT 5SM -RA BR OVC008 15/15 A3026 RMK AO2 RAB01E11B42 SLP247 P0000 T01500150
KORF 260251Z 06013KT 6SM BR OVC008 15/14 A3026 RMK AO2 RAB01E27 SLP246 P0001 60003 T01500144 58002
KORF 260151Z 05011KT 4SM BR OVC007 14/14 A3027 RMK AO2 RAE40 SLP250 P0000 T01440144
KORF 260125Z 04010KT 3SM -RA BR OVC009 14/14 A3027 RMK AO2 P0000 T01440139
KORF 260051Z 05013KT 4SM -RA BR OVC010 14/14 A3027 RMK AO2 RAE35B51 SLP249 P0002 T01440139
KORF 260046Z 05010KT 4SM BR OVC010 14/14 A3027 RMK AO2 RAE35 P0002
KORF 260036Z 05012KT 3SM BR OVC008 14/14 A3027 RMK AO2 RAE35 P0002 T01440139
KORF 260028Z 05012KT 2 1/2SM -RA BR OVC008 14/14 A3027 RMK AO2 P0002 T01440139
KORF 252351Z 04015G21KT 1 3/4SM -RA BR OVC008 14/14 A3027 RMK AO2 SLP249 P0002 60019 T01440144 10156 20144 51001
KORF 252341Z 03014KT 2SM -RA BR OVC008 15/14 A3027 RMK AO2 P0002 T01500144
KORF 252251Z 04015KT 1SM -RA BR OVC006 15/14 A3026 RMK AO2 SLP248 P0004 T01500144 RVRNO
KORF 252151Z 03013KT 1 1/4SM -RA BR OVC004 15/15 A3025 RMK AO2 SLP243 P0004 T01500150
KORF 252140Z 04014G21KT 1 1/4SM -RA BR OVC004 15/15 A3025 RMK AO2 P0004 T01500150
KORF 252108Z 05013KT 1 1/2SM -RA BR OVC005 15/15 A3025 RMK AO2 P0000 T01500150
KORF 252101Z 05013G20KT 2SM -RA BR OVC005 15/15 A3025 RMK AO2 P0000 T01500150
KORF 252051Z 04015G21KT 1 3/4SM -RA BR OVC005 15/15 A3025 RMK AO2 SLP244 P0004 60009 T01500150 55004
KORF 251959Z 04013G19KT 1 1/2SM -RA BR OVC005 16/15 A3025 RMK AO2 P0000 T01560150
KORF 251951Z 04014G20KT 2SM -RA BR OVC005 16/15 A3025 RMK AO2 SLP242 P0003 T01560150
KORF 251949Z 04014G20KT 2SM -RA BR OVC005 16/15 A3025 RMK AO2 P0003
KORF 251940Z 04013KT 1 3/4SM -RA BR OVC005 15/15 A3025 RMK AO2 P0002 T01500150
KORF 251933Z 04013G19KT 2SM -RA BR OVC004 16/16 A3026 RMK AO2 P0002 T01560156
KORF 251913Z 05011KT 2SM -RA BR OVC006 16/15 A3026 RMK AO2 P0001 T01560150
KORF 251906Z 04013KT 1 3/4SM -RA BR BKN006 OVC010 16/16 A3027 RMK AO2 P0001 T01560156
KORF 251851Z 04013G21KT 2 1/2SM -RA BR BKN006 OVC010 16/16 A3027 RMK AO2 SLP248 P0002 T01560156
KORF 251839Z 04015KT 2 1/2SM -RA BR OVC005 16/15 A3027 RMK AO2 P0002 T01560150
KORF 251829Z 03014KT 1 1/2SM -RA BR BKN005 OVC009 16/15 A3028 RMK AO2 P0002 T01560150
KORF 251810Z 03014KT 2SM -RA BR OVC007 16/16 A3028 RMK AO2 P0001 T01560156
KORF 251758Z 03015G20KT 1 1/2SM -RA BR BKN005 OVC010 16/15 A3028 RMK AO2 P0001 T01560150
KORF 251751Z 04012G20KT 2SM -RA BR BKN005 OVC010 16/16 A3027 RMK AO2 SLP250 P0004 60017 T01560156 10161 20150 51004
KORF 251748Z 05011G20KT 2SM -RA BR OVC007 16/16 A3027 RMK AO2 P0004
KORF 251711Z 04013KT 1 1/4SM -RA BR BKN005 OVC010 16/15 A3028 RMK AO2 P0002 T01560150
KORF 251651Z 05013G18KT 1SM RA BR BKN004 OVC010 16/15 A3028 RMK AO2 SLP252 P0004 T01560150 RVRNO
KORF 251621Z 04012KT 1 1/4SM -RA BR OVC004 16/16 A3027 RMK AO2 P0001 T01560156
KORF 251607Z 04012G21KT 1 1/4SM -RA BR BKN005 OVC008 16/16 A3027 RMK AO2 P0000 T01610156
KORF 251551Z 04015G21KT 2 1/2SM -RA BR OVC005 16/16 A3026 RMK AO2 SLP246 P0002 T01560156
KORF 251535Z 05012G24KT 2SM -RA BR OVC006 16/16 A3026 RMK AO2 P0002 T01560156
KORF 251451Z 05010KT 1 1/4SM -RA BR OVC004 16/16 A3027 RMK AO2 SLP248 P0004 60007 T01610161 51012
KORF 251351Z 03012KT 1 1/2SM -RA BR OVC004 16/16 A3026 RMK AO2 SLP247 P0001 T01610161
KORF 251335Z 03016KT 1 1/2SM -RA BR OVC004 16/16 A3026 RMK AO2 P0000 T01610161
KORF 251319Z 03013KT 1 3/4SM -RA BR OVC005 16/16 A3025 RMK AO2 P0000 T01610156
KORF 251304Z 03016KT 2SM -RA BR OVC005 16/16 A3025 RMK AO2 P0000 T01610156
KORF 251251Z 02013KT 1 3/4SM -RA BR OVC005 16/16 A3025 RMK AO2 SLP242 P0002 T01610161
KORF 251248Z 03014KT 1 3/4SM -RA BR OVC005 16/16 A3025 RMK AO2 P0002
KORF 251238Z 02011KT 2SM -RA BR OVC004 16/16 A3025 RMK AO2 P0002 T01610156
KORF 251230Z 02013KT 1 3/4SM -RA BR OVC004 16/16 A3025 RMK AO2 P0001 T01610156
KORF 251151Z 03012KT 1 1/2SM -RA BR OVC005 16/16 A3023 RMK AO2 SLP236 P0001 60002 70054 T01560156 10156 20150 52007
KORF 251115Z 03011KT 1 1/2SM -RA BR OVC004 16/16 A3023 RMK AO2 P0000 T01560156
KORF 251104Z 02012KT 2 1/2SM -RA BR OVC004 16/16 A3022 RMK AO2 P0000 T01560156
KORF 251051Z 03013KT 2SM -RA BR OVC005 16/16 A3022 RMK AO2 RAE09B16 SLP232 P0000 T01560156
KORF 251049Z 03011KT 2 1/2SM -RA BR OVC005 16/16 A3022 RMK AO2 RAE09B16 P0000
KORF 251032Z 02010KT 3SM -RA BR OVC005 16/16 A3022 RMK AO2 RAE09B16 P0000 T01560156
KORF 251020Z 03013KT 2 1/2SM -RA BR OVC005 16/16 A3021 RMK AO2 RAE09B16 P0000 T01560156
KORF 251012Z 02012KT 3SM BR OVC004 16/16 A3021 RMK AO2 RAE09 P0000 T01560156
KORF 250951Z 03012KT 4SM -RA BR OVC005 16/15 A3021 RMK AO2 RAE04B45 SLP228 P0001 T01560150
KORF 250941Z 03011KT 4SM BR OVC005 16/16 A3021 RMK AO2 RAE04 P0001 T01560156
KORF 250925Z 03013KT 3SM BR OVC004 16/15 A3020 RMK AO2 RAE04 P0001 T01560150
KORF 250918Z 03013KT 3SM BR BKN005 OVC008 16/16 A3020 RMK AO2 RAE04 P0001 T01560156
KORF 250851Z 03014KT 2 1/2SM -RA BR OVC005 16/16 A3020 RMK AO2 RAB01 SLP225 P0000 60000 T01560156 53002
KORF 250751Z 05011G19KT 10SM OVC006 16/15 A3018 RMK AO2 RAE0654B20E44 SLP217 P0000 T01560150
KORF 250651Z 05012KT 10SM -RA OVC007 15/14 A3018 RMK AO2 RAB00 SLP220 P0000 T01500144
KORF 250551Z 04014KT 10SM OVC005 15/14 A3019 RMK AO2 RAB20E30 SLP223 P0000 60016 T01500144 10150 20139 58005
KORF 250451Z 04014KT 10SM OVC007 14/14 A3020 RMK AO2 RAE01 SLP227 P0000 T01440139 401830139
KORF 250351Z 03014KT 6SM -RA BR OVC008 14/14 A3022 RMK AO2 SLP231 P0000 T01440139
KORF 250251Z 04016G22KT 5SM -RA BR BKN005 OVC010 14/14 A3021 RMK AO2 SLP228 P0004 60016 T01440144 51014
KORF 250237Z 03017KT 3SM -RA BR OVC005 14/14 A3021 RMK AO2 P0003 T01440139
KORF 250159Z 04015G21KT 3SM -RA BR BKN004 OVC011 14/14 A3021 RMK AO2 P0001 T01440144
KORF 250151Z 05012G19KT 2 1/2SM -RA BR BKN004 OVC011 14/14 A3021 RMK AO2 SLP228 P0005 T01440144
KORF 250114Z 04014G19KT 2 1/2SM -RA BR OVC004 14/14 A3019 RMK AO2 P0002 T01440144
KORF 250051Z 05011G19KT 2SM RA BR OVC006 14/14 A3018 RMK AO2 SLP220 P0007 T01440144
KORF 242351Z 06019G24KT 2SM RA BR OVC009 14/14 A3016 RMK AO2 PK WND 07027/2301 RAB37 SLP214 P0002 60003 T01440139 10172 20144 53017
KORF 242251Z 06017G23KT 8SM OVC007 14/14 A3014 RMK AO2 PK WND 07026/2204 SLP206 T01440139
KORF 242151Z 07019G28KT 8SM OVC007 15/14 A3013 RMK AO2 PK WND 06028/2142 RAE09 SLP201 P0000 T01500144
KORF 242051Z 07015G27KT 4SM -RA BR OVC007 16/15 A3011 RMK AO2 PK WND 06028/2028 RAE08B30 SLP196 P0000 60001 T01560150 57006
KORF 241951Z 06013G25KT 9SM -RA OVC006 16/16 A3013 RMK AO2 WSHFT 1924 RAB14 SLP201 P0001 T01610156
KORF 241944Z 06015KT 9SM -RA OVC006 16/16 A3013 RMK AO2 WSHFT 1924 RAB14 P0001 T01610156
KORF 241851Z 07016G22KT 10SM OVC005 17/16 A3012 RMK AO2 RAE50 SLP199 P0000 T01670161
KORF 241751Z 06007KT 6SM -RA BR OVC005 17/17 A3013 RMK AO2 SLP203 P0005 60033 T01720167 10183 20167 56002
KORF 241747Z 06007KT 4SM -RA BR OVC005 17/17 A3013 RMK AO2 P0005
KORF 241738Z 06007G15KT 2SM -RA BR OVC005 17/17 A3013 RMK AO2 P0004 T01720167
KORF 241651Z 09009KT 4SM -RA BR OVC006 17/17 A3012 RMK AO2 SLP200 P0011 T01720172
KORF 241615Z 09008KT 3SM RA BR OVC005 17/17 A3013 RMK AO2 P0005 T01720172
KORF 241604Z 09006KT 2 1/2SM RA BR OVC005 18/17 A3014 RMK AO2 P0002 T01780172
KORF 241551Z 08006KT 5SM RA BR OVC007 17/17 A3014 RMK AO2 SLP205 P0010 T01720172
KORF 241510Z 10009KT 4SM -RA BR OVC006 17/17 A3014 RMK AO2 P0008 T01720167
KORF 241507Z 08010KT 1 1/2SM -RA BR OVC006 17/17 A3014 RMK AO2 P0008 T01720167
KORF 241451Z 11007KT 2SM -RA BR OVC007 17/17 A3014 RMK AO2 RAB34 SLP206 P0007 60007 T01720172 51001
KORF 241440Z 09010KT 1 3/4SM +RA BR OVC007 18/17 A3013 RMK AO2 RAB34 P0002 T01780167
KORF 241417Z 09008KT 10SM OVC008 18/17 A3013 RMK AO2 T01780167
KORF 241351Z 09012KT 10SM OVC012 18/16 A3014 RMK AO2 SLP204 T01830161
KORF 241341Z 08010G17KT 10SM BKN012 OVC032 18/16 A3013 RMK AO2 T01830161
KORF 241251Z 10006KT 10SM FEW011 OVC034 17/16 A3014 RMK AO2 SLP207 T01720156
KORF 241151Z 10006KT 10SM FEW010 OVC037 17/16 A3014 RMK AO2 SLP204 60013 70013 T01670156 10172 20161 53009
KORF 241051Z 09007KT 10SM OVC037 17/16 A3013 RMK AO2 SLP201 T01670156
KORF 240951Z 07005KT 10SM OVC039 16/16 A3011 RMK AO2 SLP195 T01610156
KORF 240851Z 08009KT 10SM OVC042 16/15 A3011 RMK AO2 SLP195 60013 T01610150 58012